PWSweather.com
Personal Weather Stations
Station Observations
KIDJEROME
Sse Jerome Butte , Jerome, ID 83338

Sse Jerome Butte Jerome, ID 83338

Lat: 42.6981891, Lon: -114.4041362

Elevation: 3960

Station Type: Davis Vantage Pro 2

Latest ConditionsUpdated 1:45:00 PM MDT Saturday, May 25, 2019
Currently Today's Max Today's Min Today's Average
Temperature 54.4°F12.4°C 57.1°F13.9°C 45.8°F7.7°C 50.0°F10.0°C
Dew Point 50.6°F10.3°C 50.6°F10.3°C 45.0°F7.2°C 47.4°F8.6°C
Winds 1.0 mph SSE1.6 kmh SSE 5.0 mph -8.0 kmh - - 1.4 mph 2.3 kmh
Wind Gusts 5.0 mph8.0 kmh 10.0 mph16.1 kmh - -
Humidity 87% 97% 73% 91%
Pressure 29.71 in1006.1 mb 29.78 in1008.5 mb 29.70 in1005.8 mb -
Precipitation - 0.08 in2.0 mm - -
Hour Temp Dew Point Humidity Winds Wind Gusts Pressure Precip Precip Rate Daily Precip Total
01:45 PM 54.4°F12.4°C 50.6°F10.3°C 87% 1.0 mph SSE1.6 kmh SSE 5.0 mph8.0 kmh 29.71 in1006.1 mb 0.03 in0.8 mm 0.00 in0.0 mm 0.08 in2.0 mm
01:30 PM 54.8°F12.7°C 50.4°F10.2°C 85% 1.0 mph SW1.6 kmh SW 5.0 mph8.0 kmh 29.70 in1005.8 mb 0.06 in1.5 mm 0.00 in0.0 mm 0.08 in2.0 mm
01:15 PM 54.3°F12.4°C 50.2°F10.1°C 86% 2.0 mph ESE3.2 kmh ESE 6.0 mph9.7 kmh 29.71 in1006.1 mb 0.07 in1.8 mm 0.04 in1.0 mm 0.08 in2.0 mm
01:00 PM 53.3°F11.8°C 48.3°F9.1°C 83% 3.0 mph E4.8 kmh E 6.0 mph9.7 kmh 29.71 in1006.1 mb 0.06 in1.5 mm 0.03 in0.8 mm 0.07 in1.8 mm
12:45 PM 53.1°F11.7°C 49.0°F9.4°C 86% 1.0 mph SW1.6 kmh SW 3.0 mph4.8 kmh 29.72 in1006.4 mb 0.04 in1.0 mm 0.12 in3.0 mm 0.05 in1.3 mm
12:30 PM 55.0°F12.8°C 49.3°F9.6°C 81% 4.0 mph SSW6.4 kmh SSW 8.0 mph12.9 kmh 29.73 in1006.8 mb 0.01 in0.3 mm 0.04 in1.0 mm 0.02 in0.5 mm
12:15 PM 56.8°F13.8°C 48.2°F9.0°C 73% 2.0 mph ESE3.2 kmh ESE 6.0 mph9.7 kmh 29.72 in1006.4 mb 0.00 in0.0 mm 0.00 in0.0 mm 0.01 in0.3 mm
12:00 PM 57.1°F13.9°C 49.2°F9.6°C 75% 2.0 mph E3.2 kmh E 6.0 mph9.7 kmh 29.72 in1006.4 mb 0.00 in0.0 mm 0.00 in0.0 mm 0.01 in0.3 mm
11:45 AM 56.6°F13.7°C 48.8°F9.3°C 75% 2.0 mph SE3.2 kmh SE 5.0 mph8.0 kmh 29.72 in1006.4 mb 0.00 in0.0 mm 0.00 in0.0 mm 0.01 in0.3 mm
11:30 AM 56.3°F13.5°C 48.8°F9.3°C 76% 2.0 mph ESE3.2 kmh ESE 6.0 mph9.7 kmh 29.73 in1006.8 mb 0.00 in0.0 mm 0.00 in0.0 mm 0.01 in0.3 mm
11:15 AM 55.8°F13.2°C 49.0°F9.4°C 78% 2.0 mph ESE3.2 kmh ESE 8.0 mph12.9 kmh 29.73 in1006.8 mb 0.00 in0.0 mm 0.00 in0.0 mm 0.01 in0.3 mm
11:00 AM 55.4°F13.0°C 49.3°F9.6°C 80% 2.0 mph E3.2 kmh E 7.0 mph11.3 kmh 29.73 in1006.8 mb 0.00 in0.0 mm 0.00 in0.0 mm 0.01 in0.3 mm
10:45 AM 55.3°F12.9°C 49.6°F9.8°C 81% 2.0 mph ESE3.2 kmh ESE 6.0 mph9.7 kmh 29.74 in1007.1 mb 0.00 in0.0 mm 0.00 in0.0 mm 0.01 in0.3 mm
10:30 AM 55.9°F13.3°C 49.1°F9.5°C 78% 3.0 mph ESE4.8 kmh ESE 8.0 mph12.9 kmh 29.74 in1007.1 mb 0.00 in0.0 mm 0.00 in0.0 mm 0.01 in0.3 mm
10:15 AM 54.6°F12.6°C 50.2°F10.1°C 85% 2.0 mph E3.2 kmh E 5.0 mph8.0 kmh 29.74 in1007.1 mb 0.00 in0.0 mm 0.00 in0.0 mm 0.01 in0.3 mm
10:00 AM 53.3°F11.8°C 49.5°F9.7°C 87% 2.0 mph E3.2 kmh E 8.0 mph12.9 kmh 29.75 in1007.5 mb 0.00 in0.0 mm 0.00 in0.0 mm 0.01 in0.3 mm
09:45 AM 52.6°F11.4°C 49.1°F9.5°C 88% 3.0 mph ESE4.8 kmh ESE 8.0 mph12.9 kmh 29.75 in1007.5 mb 0.00 in0.0 mm 0.00 in0.0 mm 0.01 in0.3 mm
09:30 AM 52.0°F11.1°C 49.2°F9.6°C 90% 3.0 mph E4.8 kmh E 8.0 mph12.9 kmh 29.75 in1007.5 mb 0.00 in0.0 mm 0.00 in0.0 mm 0.01 in0.3 mm
09:15 AM 51.4°F10.8°C 48.9°F9.4°C 91% 5.0 mph ENE8.0 kmh ENE 10.0 mph16.1 kmh 29.74 in1007.1 mb 0.00 in0.0 mm 0.00 in0.0 mm 0.01 in0.3 mm
09:00 AM 51.0°F10.6°C 48.8°F9.3°C 92% 3.0 mph E4.8 kmh E 9.0 mph14.5 kmh 29.74 in1007.1 mb 0.00 in0.0 mm 0.00 in0.0 mm 0.01 in0.3 mm
08:45 AM 50.6°F10.3°C 48.9°F9.4°C 94% 4.0 mph E6.4 kmh E 9.0 mph14.5 kmh 29.74 in1007.1 mb 0.00 in0.0 mm 0.00 in0.0 mm 0.01 in0.3 mm
08:30 AM 49.5°F9.7°C 48.4°F9.1°C 96% 2.0 mph ENE3.2 kmh ENE 5.0 mph8.0 kmh 29.75 in1007.5 mb 0.00 in0.0 mm 0.00 in0.0 mm 0.01 in0.3 mm
08:15 AM 48.3°F9.1°C 47.5°F8.6°C 97% Calm Calm -- 29.75 in1007.5 mb 0.00 in0.0 mm 0.00 in0.0 mm 0.01 in0.3 mm
08:00 AM 47.8°F8.8°C 47.0°F8.3°C 97% Calm Calm -- 29.75 in1007.5 mb 0.00 in0.0 mm 0.00 in0.0 mm 0.01 in0.3 mm
07:45 AM 47.6°F8.7°C 46.8°F8.2°C 97% Calm Calm 1.0 mph1.6 kmh 29.75 in1007.5 mb 0.00 in0.0 mm 0.00 in0.0 mm 0.01 in0.3 mm
07:30 AM 47.5°F8.6°C 46.7°F8.2°C 97% Calm Calm -- 29.75 in1007.5 mb 0.00 in0.0 mm 0.00 in0.0 mm 0.01 in0.3 mm
07:15 AM 47.3°F8.5°C 46.5°F8.1°C 97% Calm Calm -- 29.75 in1007.5 mb 0.00 in0.0 mm 0.00 in0.0 mm 0.01 in0.3 mm
07:00 AM 46.8°F8.2°C 46.0°F7.8°C 97% 2.0 mph ENE3.2 kmh ENE 4.0 mph6.4 kmh 29.75 in1007.5 mb 0.00 in0.0 mm 0.00 in0.0 mm 0.01 in0.3 mm
06:45 AM 46.0°F7.8°C 45.2°F7.3°C 97% Calm Calm 2.0 mph3.2 kmh 29.75 in1007.5 mb 0.00 in0.0 mm 0.00 in0.0 mm 0.01 in0.3 mm
06:30 AM 45.8°F7.7°C 45.0°F7.2°C 97% 2.0 mph ENE3.2 kmh ENE 4.0 mph6.4 kmh 29.75 in1007.5 mb 0.00 in0.0 mm 0.00 in0.0 mm 0.01 in0.3 mm
06:15 AM 45.9°F7.7°C 45.1°F7.3°C 97% 3.0 mph NE4.8 kmh NE 7.0 mph11.3 kmh 29.74 in1007.1 mb 0.00 in0.0 mm 0.00 in0.0 mm 0.01 in0.3 mm
06:00 AM 46.0°F7.8°C 45.2°F7.3°C 97% 3.0 mph NE4.8 kmh NE 6.0 mph9.7 kmh 29.74 in1007.1 mb 0.00 in0.0 mm 0.00 in0.0 mm 0.01 in0.3 mm
05:45 AM 46.2°F7.9°C 45.4°F7.4°C 97% 2.0 mph NE3.2 kmh NE 3.0 mph4.8 kmh 29.75 in1007.5 mb 0.00 in0.0 mm 0.00 in0.0 mm 0.01 in0.3 mm
05:30 AM 46.1°F7.8°C 45.0°F7.2°C 96% 2.0 mph ENE3.2 kmh ENE 5.0 mph8.0 kmh 29.75 in1007.5 mb 0.00 in0.0 mm 0.00 in0.0 mm 0.01 in0.3 mm
05:15 AM 47.0°F8.3°C 46.2°F7.9°C 97% 2.0 mph NE3.2 kmh NE 6.0 mph9.7 kmh 29.75 in1007.5 mb 0.00 in0.0 mm 0.00 in0.0 mm 0.01 in0.3 mm
05:00 AM 47.2°F8.4°C 46.1°F7.8°C 96% 2.0 mph ENE3.2 kmh ENE 4.0 mph6.4 kmh 29.75 in1007.5 mb 0.00 in0.0 mm 0.00 in0.0 mm 0.01 in0.3 mm
04:45 AM 47.5°F8.6°C 46.4°F8.0°C 96% 2.0 mph ENE3.2 kmh ENE 4.0 mph6.4 kmh 29.75 in1007.5 mb 0.00 in0.0 mm 0.00 in0.0 mm 0.01 in0.3 mm
04:30 AM 47.7°F8.7°C 46.9°F8.3°C 97% 1.0 mph ENE1.6 kmh ENE 3.0 mph4.8 kmh 29.75 in1007.5 mb 0.00 in0.0 mm 0.00 in0.0 mm 0.01 in0.3 mm
04:15 AM 47.7°F8.7°C 46.9°F8.3°C 97% Calm Calm 2.0 mph3.2 kmh 29.76 in1007.8 mb 0.00 in0.0 mm 0.00 in0.0 mm 0.01 in0.3 mm
04:00 AM 47.6°F8.7°C 46.5°F8.1°C 96% 2.0 mph E3.2 kmh E 3.0 mph4.8 kmh 29.76 in1007.8 mb 0.00 in0.0 mm 0.00 in0.0 mm 0.01 in0.3 mm
03:45 AM 47.6°F8.7°C 46.5°F8.1°C 96% 2.0 mph E3.2 kmh E 3.0 mph4.8 kmh 29.76 in1007.8 mb 0.00 in0.0 mm 0.00 in0.0 mm 0.01 in0.3 mm
03:30 AM 47.8°F8.8°C 46.7°F8.2°C 96% Calm Calm -- 29.77 in1008.1 mb 0.00 in0.0 mm 0.00 in0.0 mm 0.01 in0.3 mm
03:15 AM 47.7°F8.7°C 46.6°F8.1°C 96% Calm Calm -- 29.77 in1008.1 mb 0.00 in0.0 mm 0.00 in0.0 mm 0.01 in0.3 mm
03:00 AM 47.8°F8.8°C 46.7°F8.2°C 96% Calm Calm -- 29.77 in1008.1 mb 0.00 in0.0 mm 0.00 in0.0 mm 0.01 in0.3 mm
02:45 AM 47.9°F8.8°C 46.8°F8.2°C 96% Calm Calm -- 29.76 in1007.8 mb 0.01 in0.3 mm 0.00 in0.0 mm 0.01 in0.3 mm
02:30 AM 47.9°F8.8°C 46.8°F8.2°C 96% Calm Calm -- 29.77 in1008.1 mb 0.01 in0.3 mm 0.00 in0.0 mm 0.01 in0.3 mm
02:15 AM 47.8°F8.8°C 46.7°F8.2°C 96% Calm Calm -- 29.76 in1007.8 mb 0.01 in0.3 mm 0.00 in0.0 mm 0.01 in0.3 mm
02:00 AM 47.8°F8.8°C 46.7°F8.2°C 96% Calm Calm -- 29.77 in1008.1 mb 0.01 in0.3 mm 0.01 in0.3 mm 0.01 in0.3 mm
01:45 AM 47.8°F8.8°C 46.7°F8.2°C 96% Calm Calm -- 29.77 in1008.1 mb 0.00 in0.0 mm 0.00 in0.0 mm 0.00 in0.0 mm
01:30 AM 47.6°F8.7°C 46.2°F7.9°C 95% Calm Calm 2.0 mph3.2 kmh 29.77 in1008.1 mb 0.00 in0.0 mm 0.00 in0.0 mm 0.00 in0.0 mm
01:15 AM 47.4°F8.6°C 46.0°F7.8°C 95% 1.0 mph S1.6 kmh S 2.0 mph3.2 kmh 29.77 in1008.1 mb 0.00 in0.0 mm 0.00 in0.0 mm 0.00 in0.0 mm
01:00 AM 47.6°F8.7°C 46.0°F7.8°C 94% Calm Calm -- 29.77 in1008.1 mb 0.00 in0.0 mm 0.00 in0.0 mm 0.00 in0.0 mm
12:45 AM 47.6°F8.7°C 46.0°F7.8°C 94% Calm Calm -- 29.77 in1008.1 mb 0.00 in0.0 mm 0.00 in0.0 mm 0.00 in0.0 mm
12:30 AM 47.5°F8.6°C 45.9°F7.7°C 94% Calm Calm -- 29.77 in1008.1 mb 0.00 in0.0 mm 0.00 in0.0 mm 0.00 in0.0 mm
12:15 AM 47.5°F8.6°C 45.6°F7.6°C 93% Calm Calm -- 29.78 in1008.5 mb 0.00 in0.0 mm 0.00 in0.0 mm 0.00 in0.0 mm
12:00 AM 48.2°F9.0°C 46.3°F7.9°C 93% Calm Calm -- 29.77 in1008.1 mb 0.00 in0.0 mm 0.00 in0.0 mm 0.00 in0.0 mm